createdAt,value
2022-12-18T00:00:02.748Z,75.27
2022-12-18T00:00:12.744Z,75.27
2022-12-18T00:00:22.714Z,75.27
2022-12-18T00:00:32.739Z,75.27
2022-12-18T00:00:42.777Z,75.37
2022-12-18T00:00:52.816Z,75.37
2022-12-18T00:01:02.792Z,75.48
2022-12-18T00:01:12.699Z,75.48
2022-12-18T00:01:22.825Z,75.59
2022-12-18T00:01:32.901Z,75.59
2022-12-18T00:01:42.863Z,75.69
2022-12-18T00:01:52.864Z,75.79
2022-12-18T00:02:02.846Z,75.79
2022-12-18T00:02:12.693Z,75.79
2022-12-18T00:02:22.707Z,75.90
2022-12-18T00:02:32.972Z,75.79
2022-12-18T00:02:42.893Z,75.79
2022-12-18T00:02:52.845Z,75.79
2022-12-18T00:03:02.876Z,75.79
2022-12-18T00:03:12.899Z,75.79
2022-12-18T00:03:22.844Z,75.76
2022-12-18T00:03:32.889Z,75.76
2022-12-18T00:03:43.146Z,75.76
2022-12-18T00:03:52.882Z,75.76
2022-12-18T00:04:02.904Z,75.76
2022-12-18T00:04:12.950Z,75.65
2022-12-18T00:04:22.957Z,75.65
2022-12-18T00:04:32.816Z,75.65
2022-12-18T00:04:42.818Z,75.55
2022-12-18T00:04:52.703Z,75.55
2022-12-18T00:05:02.767Z,75.45
2022-12-18T00:05:12.792Z,75.45
2022-12-18T00:05:22.767Z,75.45
2022-12-18T00:05:32.683Z,75.34
2022-12-18T00:05:42.811Z,75.34
2022-12-18T00:05:52.740Z,75.34
2022-12-18T00:06:02.716Z,75.23
2022-12-18T00:06:12.733Z,75.23
2022-12-18T00:06:22.802Z,75.20
2022-12-18T00:06:32.800Z,75.20
2022-12-18T00:06:42.803Z,75.09
2022-12-18T00:06:52.703Z,75.09
2022-12-18T00:07:02.709Z,75.09
2022-12-18T00:07:12.699Z,75.09
2022-12-18T00:07:22.760Z,74.99
2022-12-18T00:07:32.814Z,74.99
2022-12-18T00:07:42.728Z,74.88
2022-12-18T00:07:52.805Z,74.77
2022-12-18T00:08:02.704Z,74.67
2022-12-18T00:08:12.750Z,74.67
2022-12-18T00:08:22.717Z,74.57
2022-12-18T00:08:32.698Z,74.46
2022-12-18T00:08:42.784Z,74.35
2022-12-18T00:08:52.789Z,74.35
2022-12-18T00:09:02.734Z,74.25
2022-12-18T00:09:12.717Z,74.21
2022-12-18T00:09:22.806Z,74.14
2022-12-18T00:09:40.302Z,74.14
2022-12-18T00:09:42.815Z,74.01
2022-12-18T00:09:52.778Z,74.01
2022-12-18T00:10:02.767Z,74.01
2022-12-18T00:10:15.210Z,74.01
2022-12-18T00:10:22.729Z,74.01
2022-12-18T00:10:32.751Z,74.01
2022-12-18T00:10:42.750Z,73.90
2022-12-18T00:10:52.704Z,73.90
2022-12-18T00:11:02.719Z,73.90
2022-12-18T00:11:12.805Z,73.90
2022-12-18T00:11:22.751Z,73.90
2022-12-18T00:11:32.706Z,73.90
2022-12-18T00:11:42.780Z,73.90
2022-12-18T00:11:52.801Z,73.90
2022-12-18T00:12:22.743Z,73.79
2022-12-18T00:12:32.801Z,73.79
2022-12-18T00:12:42.735Z,73.79
2022-12-18T00:12:52.727Z,73.69
2022-12-18T00:13:06.604Z,73.69
2022-12-18T00:13:12.813Z,73.69
2022-12-18T00:13:22.695Z,73.69
2022-12-18T00:13:32.732Z,73.58
2022-12-18T00:13:42.977Z,73.58
2022-12-18T00:13:52.824Z,73.58
2022-12-18T00:14:02.761Z,73.58
2022-12-18T00:14:12.763Z,73.58
2022-12-18T00:14:22.795Z,73.47
2022-12-18T00:14:32.804Z,73.47
2022-12-18T00:14:42.790Z,73.47
2022-12-18T00:14:52.737Z,73.47
2022-12-18T00:15:02.818Z,73.47
2022-12-18T00:15:12.791Z,73.37
2022-12-18T00:15:22.753Z,73.37
2022-12-18T00:15:32.738Z,73.37
2022-12-18T00:15:42.817Z,73.37
2022-12-18T00:15:52.822Z,73.37
2022-12-18T00:16:02.826Z,73.37
2022-12-18T00:16:12.804Z,73.33
2022-12-18T00:16:22.880Z,73.37
2022-12-18T00:16:32.752Z,73.33
2022-12-18T00:16:42.790Z,73.23
2022-12-18T00:16:52.748Z,73.23
2022-12-18T00:17:02.705Z,73.13
2022-12-18T00:17:12.779Z,73.13
2022-12-18T00:17:22.787Z,73.13
2022-12-18T00:17:32.711Z,73.13
2022-12-18T00:17:42.742Z,73.13
2022-12-18T00:17:52.777Z,73.13
2022-12-18T00:18:02.706Z,73.13
2022-12-18T00:18:16.094Z,73.02
2022-12-18T00:18:22.729Z,73.02
2022-12-18T00:18:32.814Z,73.02
2022-12-18T00:18:42.806Z,73.02
2022-12-18T00:18:52.728Z,73.02
2022-12-18T00:19:02.808Z,73.02
2022-12-18T00:19:12.807Z,73.02
2022-12-18T00:19:22.813Z,73.02
2022-12-18T00:19:32.832Z,73.02
2022-12-18T00:19:42.751Z,73.02
2022-12-18T00:19:52.805Z,73.02
2022-12-18T00:20:02.802Z,73.02
2022-12-18T00:20:12.752Z,73.02
2022-12-18T00:20:22.785Z,73.02
2022-12-18T00:20:32.731Z,73.02
2022-12-18T00:20:42.801Z,73.02
2022-12-18T00:20:52.819Z,73.02
2022-12-18T00:21:02.791Z,73.02
2022-12-18T00:21:12.735Z,73.02
2022-12-18T00:21:22.775Z,73.02
2022-12-18T00:21:32.739Z,73.02
2022-12-18T00:21:42.809Z,73.02
2022-12-18T00:21:52.735Z,73.02
2022-12-18T00:22:02.738Z,73.02
2022-12-18T00:22:12.821Z,73.02
2022-12-18T00:22:22.692Z,73.02
2022-12-18T00:22:32.791Z,72.91
2022-12-18T00:22:42.746Z,72.91
2022-12-18T00:22:52.783Z,72.91
2022-12-18T00:23:02.802Z,72.91
2022-12-18T00:23:12.686Z,72.81
2022-12-18T00:23:22.812Z,72.81
2022-12-18T00:23:32.749Z,72.71
2022-12-18T00:23:43.220Z,72.74
2022-12-18T00:23:52.706Z,72.74
2022-12-18T00:24:02.755Z,72.63
2022-12-18T00:24:12.769Z,72.63
2022-12-18T00:24:22.700Z,72.63
2022-12-18T00:24:32.732Z,72.63
2022-12-18T00:24:42.719Z,72.52
2022-12-18T00:24:52.708Z,72.52
2022-12-18T00:25:02.780Z,72.63
2022-12-18T00:25:12.789Z,72.63
2022-12-18T00:25:22.752Z,72.63
2022-12-18T00:25:32.733Z,72.74
2022-12-18T00:25:42.758Z,72.84
2022-12-18T00:25:52.788Z,72.95
2022-12-18T00:26:02.784Z,72.95
2022-12-18T00:26:12.728Z,73.05
2022-12-18T00:26:22.805Z,73.16
2022-12-18T00:26:32.699Z,73.27
2022-12-18T00:26:42.725Z,73.27
2022-12-18T00:26:52.695Z,73.27
2022-12-18T00:27:02.721Z,73.27
2022-12-18T00:27:12.768Z,73.27
2022-12-18T00:27:22.770Z,73.16
2022-12-18T00:27:32.812Z,73.08
2022-12-18T00:27:42.751Z,73.08
2022-12-18T00:27:52.728Z,72.98
2022-12-18T00:28:02.688Z,72.98
2022-12-18T00:28:12.725Z,72.98
2022-12-18T00:28:22.786Z,72.98
2022-12-18T00:28:32.806Z,72.98
2022-12-18T00:28:42.753Z,72.98
2022-12-18T00:28:52.712Z,73.08
2022-12-18T00:29:02.714Z,73.19
2022-12-18T00:29:12.761Z,73.30
2022-12-18T00:29:22.700Z,73.40
2022-12-18T00:29:32.726Z,73.40
2022-12-18T00:29:42.701Z,73.51
2022-12-18T00:29:52.763Z,73.61
2022-12-18T00:30:02.761Z,73.72
2022-12-18T00:30:12.794Z,73.72
2022-12-18T00:30:22.750Z,73.72
2022-12-18T00:30:32.712Z,73.82
2022-12-18T00:30:42.736Z,73.82
2022-12-18T00:30:52.810Z,73.93
2022-12-18T00:31:02.817Z,74.04
2022-12-18T00:31:12.749Z,74.04
2022-12-18T00:31:22.898Z,74.14
2022-12-18T00:31:32.849Z,74.14
2022-12-18T00:31:42.838Z,74.14
2022-12-18T00:31:52.814Z,74.25
2022-12-18T00:32:02.824Z,74.25
2022-12-18T00:32:12.760Z,74.25
2022-12-18T00:32:22.762Z,74.25
2022-12-18T00:32:32.764Z,74.25
2022-12-18T00:32:42.748Z,74.25
2022-12-18T00:32:52.726Z,74.14
2022-12-18T00:33:02.742Z,74.25
2022-12-18T00:33:12.722Z,74.25
2022-12-18T00:33:22.811Z,74.14
2022-12-18T00:33:32.814Z,74.14
2022-12-18T00:33:42.964Z,74.14
2022-12-18T00:33:53.962Z,74.14
2022-12-18T00:34:02.762Z,74.25
2022-12-18T00:34:12.795Z,74.25
2022-12-18T00:34:22.775Z,74.25
2022-12-18T00:34:32.747Z,74.35
2022-12-18T00:34:42.802Z,74.35
2022-12-18T00:34:52.729Z,74.35
2022-12-18T00:35:02.741Z,74.35
2022-12-18T00:35:12.706Z,74.46
2022-12-18T00:35:22.719Z,74.35
2022-12-18T00:35:32.815Z,74.46
2022-12-18T00:35:42.694Z,74.35
2022-12-18T00:35:52.817Z,74.35
2022-12-18T00:36:02.690Z,74.35
2022-12-18T00:36:12.780Z,74.35
2022-12-18T00:36:22.724Z,74.25
2022-12-18T00:36:32.799Z,74.11
2022-12-18T00:36:42.745Z,73.93
2022-12-18T00:36:52.724Z,73.82
2022-12-18T00:37:02.743Z,73.72
2022-12-18T00:37:18.279Z,73.61
2022-12-18T00:37:22.753Z,73.61
2022-12-18T00:37:32.720Z,73.51
2022-12-18T00:37:42.695Z,73.51
2022-12-18T00:37:52.787Z,73.40
2022-12-18T00:38:02.750Z,73.40
2022-12-18T00:38:12.765Z,73.40
2022-12-18T00:38:22.758Z,73.40
2022-12-18T00:38:32.696Z,73.51
2022-12-18T00:38:42.802Z,73.51
2022-12-18T00:38:52.713Z,73.51
2022-12-18T00:39:02.706Z,73.51
2022-12-18T00:39:12.807Z,73.51
2022-12-18T00:39:22.811Z,73.51
2022-12-18T00:39:32.803Z,73.61
2022-12-18T00:39:42.714Z,73.61
2022-12-18T00:39:52.757Z,73.72
2022-12-18T00:40:02.747Z,73.82
2022-12-18T00:40:12.780Z,73.82
2022-12-18T00:40:22.725Z,73.82
2022-12-18T00:40:32.695Z,73.82
2022-12-18T00:40:42.802Z,73.72
2022-12-18T00:40:52.800Z,73.72
2022-12-18T00:41:02.689Z,73.72
2022-12-18T00:41:12.727Z,73.61
2022-12-18T00:41:22.684Z,73.61
2022-12-18T00:41:32.789Z,73.61
2022-12-18T00:41:42.758Z,73.51
2022-12-18T00:41:52.734Z,73.51
2022-12-18T00:42:02.739Z,73.51
2022-12-18T00:42:12.701Z,73.51
2022-12-18T00:42:22.712Z,73.61
2022-12-18T00:42:32.697Z,73.61
2022-12-18T00:42:42.695Z,73.72
2022-12-18T00:42:52.722Z,73.72
2022-12-18T00:43:02.732Z,73.72
2022-12-18T00:43:12.756Z,73.82
2022-12-18T00:43:22.847Z,73.82
2022-12-18T00:43:32.715Z,73.72
2022-12-18T00:43:42.963Z,73.72
2022-12-18T00:43:52.704Z,73.61
2022-12-18T00:44:02.814Z,73.61
2022-12-18T00:44:12.727Z,73.61
2022-12-18T00:44:22.817Z,73.61
2022-12-18T00:44:32.719Z,73.61
2022-12-18T00:44:42.801Z,73.61
2022-12-18T00:44:52.797Z,73.72
2022-12-18T00:45:06.411Z,73.72
2022-12-18T00:45:13.380Z,73.72
2022-12-18T00:45:22.757Z,73.72
2022-12-18T00:45:33.005Z,73.61
2022-12-18T00:45:42.750Z,73.51
2022-12-18T00:45:52.872Z,73.40
2022-12-18T00:46:02.785Z,73.30
2022-12-18T00:46:12.784Z,73.30
2022-12-18T00:46:22.711Z,73.30
2022-12-18T00:46:32.808Z,73.30
2022-12-18T00:46:42.719Z,73.40
2022-12-18T00:46:52.711Z,73.40
2022-12-18T00:47:02.706Z,73.51
2022-12-18T00:47:12.715Z,73.51
2022-12-18T00:47:22.728Z,73.61
2022-12-18T00:47:32.778Z,73.61
2022-12-18T00:47:42.723Z,73.61
2022-12-18T00:47:52.692Z,73.51
2022-12-18T00:48:02.776Z,73.51
2022-12-18T00:48:12.783Z,73.51
2022-12-18T00:48:22.773Z,73.61
2022-12-18T00:48:32.791Z,73.61
2022-12-18T00:48:42.722Z,73.61
2022-12-18T00:48:52.693Z,73.65
2022-12-18T00:49:02.754Z,73.61
2022-12-18T00:49:12.799Z,73.65
2022-12-18T00:49:22.687Z,73.61
2022-12-18T00:49:32.794Z,73.75
2022-12-18T00:49:42.720Z,73.75
2022-12-18T00:49:52.773Z,73.86
2022-12-18T00:50:02.769Z,73.86
2022-12-18T00:50:12.812Z,73.86
2022-12-18T00:50:22.806Z,73.86
2022-12-18T00:50:32.688Z,73.86
2022-12-18T00:50:42.691Z,73.75
2022-12-18T00:50:52.687Z,73.75
2022-12-18T00:51:02.802Z,73.75
2022-12-18T00:51:12.716Z,73.75
2022-12-18T00:51:22.804Z,73.86
2022-12-18T00:51:32.688Z,73.86
2022-12-18T00:51:42.712Z,73.96
2022-12-18T00:51:52.760Z,73.96
2022-12-18T00:52:02.805Z,74.07
2022-12-18T00:52:12.765Z,74.07
2022-12-18T00:52:22.739Z,74.07
2022-12-18T00:52:32.744Z,74.07
2022-12-18T00:52:42.725Z,74.07
2022-12-18T00:52:52.798Z,74.07
2022-12-18T00:53:02.805Z,73.96
2022-12-18T00:53:12.821Z,73.96
2022-12-18T00:53:22.718Z,73.96
2022-12-18T00:53:32.712Z,73.96
2022-12-18T00:53:42.728Z,73.86
2022-12-18T00:53:52.780Z,73.86
2022-12-18T00:54:02.776Z,73.96
2022-12-18T00:54:12.775Z,73.96
2022-12-18T00:54:22.760Z,73.96
2022-12-18T00:54:32.778Z,74.07
2022-12-18T00:54:42.759Z,74.28
2022-12-18T00:54:52.758Z,74.39
2022-12-18T00:55:06.225Z,74.46
2022-12-18T00:55:12.721Z,74.57
2022-12-18T00:55:22.802Z,74.67
2022-12-18T00:55:32.804Z,74.67
2022-12-18T00:55:42.797Z,74.77
2022-12-18T00:55:52.747Z,74.88
2022-12-18T00:56:02.771Z,74.88
2022-12-18T00:56:12.800Z,74.77
2022-12-18T00:56:22.700Z,74.77
2022-12-18T00:56:32.803Z,74.77
2022-12-18T00:56:49.295Z,74.67
2022-12-18T00:56:52.747Z,74.67
2022-12-18T00:57:02.743Z,74.67
2022-12-18T00:57:12.711Z,74.67
2022-12-18T00:57:22.784Z,74.57
2022-12-18T00:57:32.787Z,74.53
2022-12-18T00:57:42.784Z,74.43
2022-12-18T00:57:52.803Z,74.43
2022-12-18T00:58:02.732Z,74.32
2022-12-18T00:58:12.772Z,74.32
2022-12-18T00:58:22.723Z,74.32
2022-12-18T00:58:32.725Z,74.21
2022-12-18T00:58:42.770Z,74.11
2022-12-18T00:58:52.815Z,74.01
2022-12-18T00:59:02.781Z,73.90
2022-12-18T00:59:12.756Z,73.79
2022-12-18T00:59:22.813Z,73.69
2022-12-18T00:59:32.703Z,73.58
2022-12-18T00:59:42.788Z,73.47
2022-12-18T00:59:52.819Z,73.33
2022-12-18T01:00:02.815Z,73.23
2022-12-18T01:00:12.698Z,73.13
2022-12-18T01:00:22.734Z,73.13
2022-12-18T01:00:32.838Z,73.02
2022-12-18T01:00:42.921Z,73.02
2022-12-18T01:00:52.838Z,72.91
2022-12-18T01:01:02.786Z,72.91
2022-12-18T01:01:12.757Z,72.81
2022-12-18T01:01:22.869Z,72.71
2022-12-18T01:01:32.933Z,72.71
2022-12-18T01:01:42.916Z,72.60
2022-12-18T01:01:53.062Z,72.49
2022-12-18T01:02:02.909Z,72.39
2022-12-18T01:02:12.906Z,72.28
2022-12-18T01:02:22.897Z,72.28
2022-12-18T01:02:32.936Z,72.28
2022-12-18T01:02:42.958Z,72.04
2022-12-18T01:02:52.957Z,71.93
2022-12-18T01:03:02.937Z,71.93
2022-12-18T01:03:12.861Z,71.83
2022-12-18T01:03:22.694Z,71.83
2022-12-18T01:03:32.788Z,71.83
2022-12-18T01:03:42.849Z,71.83
2022-12-18T01:03:52.808Z,71.72
2022-12-18T01:04:02.772Z,71.72
2022-12-18T01:04:12.749Z,71.72
2022-12-18T01:04:22.712Z,71.72
2022-12-18T01:04:32.731Z,71.61
2022-12-18T01:04:42.745Z,71.61
2022-12-18T01:04:52.796Z,71.51
2022-12-18T01:05:02.694Z,71.51
2022-12-18T01:05:12.710Z,71.41
2022-12-18T01:05:22.705Z,71.30
2022-12-18T01:05:32.735Z,71.30
2022-12-18T01:05:42.714Z,71.19
2022-12-18T01:05:52.819Z,71.19
2022-12-18T01:06:02.757Z,71.09
2022-12-18T01:06:12.740Z,71.09
2022-12-18T01:06:22.728Z,71.19
2022-12-18T01:06:32.778Z,71.19
2022-12-18T01:06:42.791Z,71.19
2022-12-18T01:06:52.699Z,71.19
2022-12-18T01:07:02.769Z,71.09
2022-12-18T01:07:12.705Z,71.09
2022-12-18T01:07:22.801Z,71.09
2022-12-18T01:07:32.693Z,71.09
2022-12-18T01:07:42.735Z,71.09
2022-12-18T01:07:52.784Z,70.98
2022-12-18T01:08:02.736Z,70.88
2022-12-18T01:08:12.730Z,70.88
2022-12-18T01:08:22.740Z,70.77
2022-12-18T01:08:32.734Z,70.77
2022-12-18T01:08:42.770Z,70.77
2022-12-18T01:08:52.778Z,70.77
2022-12-18T01:09:02.781Z,70.88
2022-12-18T01:09:12.718Z,70.88
2022-12-18T01:09:22.821Z,70.88
2022-12-18T01:09:32.751Z,70.98
2022-12-18T01:09:42.691Z,70.98
2022-12-18T01:09:52.794Z,70.98
2022-12-18T01:10:02.695Z,71.09
2022-12-18T01:10:12.783Z,71.09
2022-12-18T01:10:22.741Z,71.09
2022-12-18T01:10:32.769Z,70.98
2022-12-18T01:10:42.796Z,70.98
2022-12-18T01:10:52.796Z,70.98
2022-12-18T01:11:02.783Z,70.98
2022-12-18T01:11:12.749Z,71.09
2022-12-18T01:11:22.713Z,71.09
2022-12-18T01:11:32.711Z,71.09
2022-12-18T01:11:42.827Z,71.09
2022-12-18T01:11:52.781Z,71.09
2022-12-18T01:12:02.803Z,71.09
2022-12-18T01:12:12.761Z,71.09
2022-12-18T01:12:22.737Z,71.09
2022-12-18T01:12:32.771Z,70.98
2022-12-18T01:12:42.692Z,70.98
2022-12-18T01:12:52.803Z,70.88
2022-12-18T01:13:02.718Z,70.88
2022-12-18T01:13:12.750Z,70.77
2022-12-18T01:13:22.724Z,70.67
2022-12-18T01:13:32.832Z,70.67
2022-12-18T01:13:42.749Z,70.56
2022-12-18T01:13:52.710Z,70.56
2022-12-18T01:14:02.768Z,70.45
2022-12-18T01:14:12.802Z,70.45
2022-12-18T01:14:22.817Z,70.56
2022-12-18T01:14:32.728Z,70.56
2022-12-18T01:14:42.757Z,70.56
2022-12-18T01:14:52.700Z,70.56
2022-12-18T01:15:02.783Z,70.67
2022-12-18T01:15:12.810Z,70.67
2022-12-18T01:15:22.834Z,70.67
2022-12-18T01:15:32.823Z,70.77
2022-12-18T01:15:42.798Z,70.77
2022-12-18T01:15:52.700Z,70.77
2022-12-18T01:16:02.856Z,70.77
2022-12-18T01:16:12.859Z,70.77
2022-12-18T01:16:22.760Z,70.77
2022-12-18T01:16:32.842Z,70.77
2022-12-18T01:16:42.886Z,70.77
2022-12-18T01:16:52.774Z,70.77
2022-12-18T01:17:02.785Z,70.88
2022-12-18T01:17:12.763Z,70.88
2022-12-18T01:17:22.795Z,70.91
2022-12-18T01:17:32.827Z,71.01
2022-12-18T01:17:42.794Z,71.01
2022-12-18T01:17:52.724Z,71.12
2022-12-18T01:18:02.790Z,71.23
2022-12-18T01:18:12.717Z,71.23
2022-12-18T01:18:22.740Z,71.23
2022-12-18T01:18:32.781Z,71.23
2022-12-18T01:18:42.794Z,71.12
2022-12-18T01:18:52.703Z,71.12
2022-12-18T01:19:02.835Z,71.01
2022-12-18T01:19:12.751Z,71.01
2022-12-18T01:19:22.694Z,71.01
2022-12-18T01:19:32.721Z,70.91
2022-12-18T01:19:42.807Z,71.01
2022-12-18T01:19:52.691Z,71.01
2022-12-18T01:20:02.701Z,71.01
2022-12-18T01:20:12.736Z,71.12
2022-12-18T01:20:22.722Z,71.12
2022-12-18T01:20:32.810Z,71.23
2022-12-18T01:20:42.815Z,71.23
2022-12-18T01:20:52.682Z,71.36
2022-12-18T01:21:02.700Z,71.47
2022-12-18T01:21:12.702Z,71.58
2022-12-18T01:21:22.778Z,71.58
2022-12-18T01:21:32.792Z,71.68
2022-12-18T01:21:42.819Z,71.68
2022-12-18T01:21:52.752Z,71.68
2022-12-18T01:22:02.684Z,71.78
2022-12-18T01:22:12.774Z,71.78
2022-12-18T01:22:22.715Z,71.78
2022-12-18T01:22:32.699Z,71.89
2022-12-18T01:22:42.823Z,71.89
2022-12-18T01:22:52.738Z,71.89
2022-12-18T01:23:02.713Z,72.00
2022-12-18T01:23:12.702Z,72.10
2022-12-18T01:23:22.686Z,72.10
2022-12-18T01:23:32.708Z,72.21
2022-12-18T01:23:42.958Z,72.21
2022-12-18T01:23:52.683Z,72.21
2022-12-18T01:24:02.769Z,72.31
2022-12-18T01:24:12.793Z,72.31
2022-12-18T01:24:22.719Z,72.31
2022-12-18T01:24:32.709Z,72.31
2022-12-18T01:24:42.717Z,72.42
2022-12-18T01:24:52.820Z,72.42
2022-12-18T01:25:02.708Z,72.42
2022-12-18T01:25:12.787Z,72.31
2022-12-18T01:25:22.688Z,72.31
2022-12-18T01:25:32.684Z,72.31
2022-12-18T01:25:42.818Z,72.31
2022-12-18T01:25:52.728Z,72.28
2022-12-18T01:26:02.726Z,72.31
2022-12-18T01:26:12.733Z,72.28
2022-12-18T01:26:22.744Z,72.28
2022-12-18T01:26:32.738Z,72.28
2022-12-18T01:26:42.812Z,72.28
2022-12-18T01:26:52.758Z,72.28
2022-12-18T01:27:02.810Z,72.28
2022-12-18T01:27:12.701Z,72.17
2022-12-18T01:27:22.764Z,72.17
2022-12-18T01:27:32.727Z,72.07
2022-12-18T01:27:42.765Z,71.97
2022-12-18T01:27:52.739Z,71.97
2022-12-18T01:28:02.755Z,71.86
2022-12-18T01:28:12.776Z,71.86
2022-12-18T01:28:22.704Z,71.86
2022-12-18T01:28:32.815Z,71.86
2022-12-18T01:28:42.724Z,71.97
2022-12-18T01:28:52.790Z,71.97
2022-12-18T01:29:02.701Z,71.97
2022-12-18T01:29:12.721Z,72.07
2022-12-18T01:29:22.711Z,72.07
2022-12-18T01:29:32.717Z,72.17
2022-12-18T01:29:42.736Z,72.17
2022-12-18T01:29:52.688Z,72.17
2022-12-18T01:30:02.735Z,72.17
2022-12-18T01:30:12.793Z,72.17
2022-12-18T01:30:22.725Z,72.17
2022-12-18T01:30:32.739Z,72.17
2022-12-18T01:30:42.711Z,72.07
2022-12-18T01:30:52.755Z,72.07
2022-12-18T01:31:02.700Z,72.07
2022-12-18T01:31:12.752Z,72.07
2022-12-18T01:31:22.837Z,72.07
2022-12-18T01:31:32.785Z,72.07
2022-12-18T01:31:42.857Z,72.07
2022-12-18T01:31:52.800Z,72.07
2022-12-18T01:32:02.850Z,72.07
2022-12-18T01:32:12.814Z,72.17
2022-12-18T01:32:22.686Z,72.17
2022-12-18T01:32:32.746Z,72.17
2022-12-18T01:32:42.785Z,72.17
2022-12-18T01:32:52.740Z,72.17
2022-12-18T01:33:02.765Z,72.07
2022-12-18T01:33:12.686Z,72.07
2022-12-18T01:33:22.768Z,71.97
2022-12-18T01:33:32.763Z,71.86
2022-12-18T01:33:42.745Z,71.86
2022-12-18T01:33:52.766Z,71.86
2022-12-18T01:34:02.818Z,71.86
2022-12-18T01:34:12.685Z,71.86
2022-12-18T01:34:22.743Z,71.86
2022-12-18T01:34:32.702Z,71.86
2022-12-18T01:34:42.795Z,71.86
2022-12-18T01:34:52.778Z,71.86
2022-12-18T01:35:02.773Z,71.86
2022-12-18T01:35:12.726Z,71.75
2022-12-18T01:35:22.736Z,71.75
2022-12-18T01:35:32.773Z,71.75
2022-12-18T01:35:42.772Z,71.75
2022-12-18T01:35:52.692Z,71.61
2022-12-18T01:36:02.798Z,71.61
2022-12-18T01:36:12.737Z,71.61
2022-12-18T01:36:22.808Z,71.51
2022-12-18T01:36:32.746Z,71.41
2022-12-18T01:36:42.716Z,71.30
2022-12-18T01:36:52.723Z,71.19
2022-12-18T01:37:02.717Z,71.19
2022-12-18T01:37:12.704Z,71.09
2022-12-18T01:37:22.694Z,70.98
2022-12-18T01:37:32.707Z,70.98
2022-12-18T01:37:42.757Z,70.88
2022-12-18T01:37:52.705Z,70.77
2022-12-18T01:38:02.703Z,70.67
2022-12-18T01:38:12.745Z,70.67
2022-12-18T01:38:22.761Z,70.67
2022-12-18T01:38:32.769Z,70.56
2022-12-18T01:38:42.786Z,70.53
2022-12-18T01:38:52.786Z,70.53
2022-12-18T01:39:02.722Z,70.53
2022-12-18T01:39:12.701Z,70.53
2022-12-18T01:39:22.719Z,70.42
2022-12-18T01:39:32.794Z,70.42
2022-12-18T01:39:42.756Z,70.42
2022-12-18T01:39:52.689Z,70.42
2022-12-18T01:40:02.804Z,70.32
2022-12-18T01:40:12.697Z,70.21
2022-12-18T01:40:22.751Z,70.21
2022-12-18T01:40:32.839Z,70.21
2022-12-18T01:40:42.697Z,70.10
2022-12-18T01:40:52.750Z,70.10
2022-12-18T01:41:02.723Z,70.10
2022-12-18T01:41:12.771Z,70.10
2022-12-18T01:41:22.761Z,70.10
2022-12-18T01:41:32.760Z,70.10
2022-12-18T01:41:42.685Z,70.00
2022-12-18T01:41:52.699Z,70.00
2022-12-18T01:42:02.798Z,70.00
2022-12-18T01:42:12.725Z,70.00
2022-12-18T01:42:22.763Z,69.90
2022-12-18T01:42:32.771Z,69.90
2022-12-18T01:42:42.753Z,69.90
2022-12-18T01:42:52.737Z,69.90
2022-12-18T01:43:02.782Z,69.79
2022-12-18T01:43:12.698Z,69.79
2022-12-18T01:43:22.745Z,69.90
2022-12-18T01:43:32.816Z,69.90
2022-12-18T01:43:42.705Z,69.90
2022-12-18T01:43:52.749Z,69.90
2022-12-18T01:44:02.776Z,70.00
2022-12-18T01:44:12.766Z,69.90
2022-12-18T01:44:22.755Z,69.90
2022-12-18T01:44:32.814Z,69.76
2022-12-18T01:44:42.762Z,69.68
2022-12-18T01:44:52.805Z,69.55
2022-12-18T01:45:02.725Z,69.58
2022-12-18T01:45:12.765Z,69.58
2022-12-18T01:45:22.814Z,69.68
2022-12-18T01:45:32.784Z,69.68
2022-12-18T01:45:42.762Z,69.68
2022-12-18T01:45:52.829Z,69.68
2022-12-18T01:46:02.815Z,69.65
2022-12-18T01:46:12.788Z,69.65
2022-12-18T01:46:22.794Z,69.58
2022-12-18T01:46:32.810Z,69.48
2022-12-18T01:46:42.773Z,69.48
2022-12-18T01:46:52.801Z,69.45
2022-12-18T01:47:02.691Z,69.48
2022-12-18T01:47:12.706Z,69.58
2022-12-18T01:47:22.746Z,69.48
2022-12-18T01:47:32.712Z,69.45
2022-12-18T01:47:42.717Z,69.37
2022-12-18T01:47:52.729Z,69.37
2022-12-18T01:48:02.741Z,69.37
2022-12-18T01:48:12.764Z,69.37
2022-12-18T01:48:22.696Z,69.48
2022-12-18T01:48:32.819Z,69.48
2022-12-18T01:48:42.733Z,69.48
2022-12-18T01:48:52.768Z,69.48
2022-12-18T01:49:02.765Z,69.48
2022-12-18T01:49:12.737Z,69.58
2022-12-18T01:49:22.684Z,69.58
2022-12-18T01:49:32.771Z,69.68
2022-12-18T01:49:42.792Z,69.68
2022-12-18T01:49:52.792Z,69.68
2022-12-18T01:50:02.726Z,69.79
2022-12-18T01:50:12.761Z,69.79
2022-12-18T01:50:22.753Z,69.76
2022-12-18T01:50:32.798Z,69.79
2022-12-18T01:50:42.802Z,69.76
2022-12-18T01:50:52.809Z,69.90
2022-12-18T01:51:02.708Z,69.87
2022-12-18T01:51:12.761Z,69.87
2022-12-18T01:51:22.757Z,69.87
2022-12-18T01:51:32.755Z,69.87
2022-12-18T01:51:42.775Z,69.87
2022-12-18T01:51:52.756Z,69.90
2022-12-18T01:52:02.719Z,69.79
2022-12-18T01:52:12.819Z,69.65
2022-12-18T01:52:22.733Z,69.68
2022-12-18T01:52:32.693Z,69.55
2022-12-18T01:52:42.741Z,69.45
2022-12-18T01:52:52.788Z,69.48
2022-12-18T01:53:02.782Z,69.48
2022-12-18T01:53:12.693Z,69.48
2022-12-18T01:53:22.743Z,69.45
2022-12-18T01:53:32.710Z,69.48
2022-12-18T01:53:42.806Z,69.48
2022-12-18T01:53:52.698Z,69.37
2022-12-18T01:54:02.685Z,69.37
2022-12-18T01:54:12.733Z,69.37
2022-12-18T01:54:22.787Z,69.37
2022-12-18T01:54:32.796Z,69.48
2022-12-18T01:54:42.724Z,69.48
2022-12-18T01:54:52.737Z,69.58
2022-12-18T01:55:02.690Z,69.58
2022-12-18T01:55:12.739Z,69.68
2022-12-18T01:55:22.729Z,69.68
2022-12-18T01:55:32.687Z,69.68
2022-12-18T01:55:42.687Z,69.68
2022-12-18T01:55:52.786Z,69.79
2022-12-18T01:56:02.799Z,69.79
2022-12-18T01:56:12.788Z,69.68
2022-12-18T01:56:22.808Z,69.55
2022-12-18T01:56:32.770Z,69.55
2022-12-18T01:56:42.800Z,69.45
2022-12-18T01:56:52.755Z,69.45
2022-12-18T01:57:02.816Z,69.45
2022-12-18T01:57:12.685Z,69.45
2022-12-18T01:57:22.765Z,69.45
2022-12-18T01:57:32.718Z,69.55
2022-12-18T01:57:42.809Z,69.55
2022-12-18T01:57:52.688Z,69.55
2022-12-18T01:58:02.705Z,69.55
2022-12-18T01:58:12.741Z,69.55
2022-12-18T01:58:22.728Z,69.55
2022-12-18T01:58:32.758Z,69.55
2022-12-18T01:58:42.749Z,69.45
2022-12-18T01:58:52.825Z,69.45
2022-12-18T01:59:02.705Z,69.45
2022-12-18T01:59:12.748Z,69.45
2022-12-18T01:59:22.750Z,69.55
2022-12-18T01:59:32.725Z,69.55
2022-12-18T01:59:42.811Z,69.55
2022-12-18T01:59:52.800Z,69.45
2022-12-18T02:00:02.719Z,69.45
2022-12-18T02:00:12.689Z,69.45
2022-12-18T02:00:22.692Z,69.34
2022-12-18T02:00:32.731Z,69.34
2022-12-18T02:00:42.864Z,69.34
2022-12-18T02:00:52.834Z,69.34
2022-12-18T02:01:02.784Z,69.34
2022-12-18T02:01:12.739Z,69.34
2022-12-18T02:01:22.839Z,69.23
2022-12-18T02:01:32.966Z,69.23
2022-12-18T02:01:42.835Z,69.23
2022-12-18T02:01:52.957Z,69.23
2022-12-18T02:02:03.025Z,69.23
2022-12-18T02:02:12.906Z,69.23
2022-12-18T02:02:22.851Z,69.34
2022-12-18T02:02:32.982Z,69.34
2022-12-18T02:02:42.916Z,69.23
2022-12-18T02:02:53.059Z,69.23
2022-12-18T02:03:02.846Z,69.34
2022-12-18T02:03:12.795Z,69.34
2022-12-18T02:03:22.764Z,69.34
2022-12-18T02:03:32.742Z,69.34
2022-12-18T02:03:42.735Z,69.45
2022-12-18T02:03:52.741Z,69.45
2022-12-18T02:04:02.707Z,69.45
2022-12-18T02:04:12.755Z,69.45
2022-12-18T02:04:22.749Z,69.45
2022-12-18T02:04:32.816Z,69.45
2022-12-18T02:04:47.825Z,69.45
2022-12-18T02:04:52.799Z,69.45
2022-12-18T02:05:02.755Z,69.45
2022-12-18T02:05:12.776Z,69.45
2022-12-18T02:05:22.730Z,69.45
2022-12-18T02:05:32.779Z,69.55
2022-12-18T02:05:42.801Z,69.55
2022-12-18T02:05:52.744Z,69.55
2022-12-18T02:06:02.785Z,69.55
2022-12-18T02:06:12.796Z,69.55
2022-12-18T02:06:22.797Z,69.55
2022-12-18T02:06:32.690Z,69.55
2022-12-18T02:06:42.809Z,69.55
2022-12-18T02:06:52.696Z,69.55
2022-12-18T02:07:02.763Z,69.55
2022-12-18T02:07:12.815Z,69.45
2022-12-18T02:07:22.740Z,69.45
2022-12-18T02:07:32.724Z,69.45
2022-12-18T02:07:42.732Z,69.45
2022-12-18T02:07:52.759Z,69.45
2022-12-18T02:08:02.746Z,69.45
2022-12-18T02:08:12.714Z,69.34
2022-12-18T02:08:22.819Z,69.34
2022-12-18T02:08:32.719Z,69.34
2022-12-18T02:08:42.778Z,69.23
2022-12-18T02:08:52.797Z,69.23
2022-12-18T02:09:02.719Z,69.13